createdAt,value
2022-09-14T00:01:23.580Z,12.33
2022-09-14T00:04:26.515Z,12.27
2022-09-14T00:07:30.765Z,12.26
2022-09-14T00:10:32.552Z,12.23
2022-09-14T00:13:35.491Z,12.17
2022-09-14T00:16:42.092Z,12.15
2022-09-14T00:19:47.128Z,12.13
2022-09-14T00:22:48.909Z,12.10
2022-09-14T00:25:50.555Z,12.05
2022-09-14T00:28:57.005Z,12.01
2022-09-14T00:31:59.327Z,11.97
2022-09-14T00:35:04.426Z,11.96
2022-09-14T00:38:07.991Z,11.93
2022-09-14T00:41:15.832Z,11.92
2022-09-14T00:44:19.871Z,11.91
2022-09-14T00:47:21.821Z,11.86
2022-09-14T00:50:23.877Z,11.87
2022-09-14T00:53:25.718Z,11.87
2022-09-14T00:56:29.720Z,11.86
2022-09-14T00:59:36.918Z,11.90
2022-09-14T01:02:39.422Z,11.89
2022-09-14T01:05:56.365Z,11.88
2022-09-14T01:09:33.469Z,11.89
2022-09-14T01:13:10.096Z,11.89
2022-09-14T01:16:44.795Z,11.88
2022-09-14T01:19:57.445Z,11.86
2022-09-14T01:23:03.922Z,11.88
2022-09-14T01:26:08.708Z,11.87
2022-09-14T01:29:10.342Z,11.87
2022-09-14T01:32:32.873Z,11.88
2022-09-14T01:35:45.803Z,11.88
2022-09-14T01:38:52.636Z,11.85
2022-09-14T01:41:54.877Z,11.84
2022-09-14T01:45:01.095Z,11.84
2022-09-14T01:48:06.534Z,11.85
2022-09-14T01:51:41.392Z,11.84
2022-09-14T01:54:51.321Z,11.82
2022-09-14T01:58:05.490Z,11.82
2022-09-14T02:01:16.060Z,11.81
2022-09-14T02:04:26.961Z,11.79
2022-09-14T02:07:29.557Z,11.80
2022-09-14T02:10:31.880Z,11.80
2022-09-14T02:13:38.877Z,11.81
2022-09-14T02:16:46.273Z,11.79
2022-09-14T02:19:56.147Z,11.80
2022-09-14T02:23:00.473Z,11.75
2022-09-14T02:26:02.271Z,11.77
2022-09-14T02:29:05.336Z,11.76
2022-09-14T02:32:28.948Z,11.79
2022-09-14T02:35:32.110Z,11.78
2022-09-14T02:38:44.286Z,11.77
2022-09-14T02:41:57.322Z,11.74
2022-09-14T02:45:07.924Z,11.74
2022-09-14T02:48:38.784Z,11.75
2022-09-14T02:51:51.055Z,11.74
2022-09-14T02:55:02.203Z,11.72
2022-09-14T02:58:10.536Z,11.71
2022-09-14T03:01:24.300Z,11.70
2022-09-14T03:04:26.114Z,11.68
2022-09-14T03:07:27.957Z,11.64
2022-09-14T03:10:31.437Z,11.63
2022-09-14T03:13:36.967Z,11.63
2022-09-14T03:16:39.434Z,11.60
2022-09-14T03:19:41.245Z,11.59
2022-09-14T03:22:43.053Z,11.59
2022-09-14T03:25:44.837Z,11.58
2022-09-14T03:28:52.074Z,11.57
2022-09-14T03:31:53.788Z,11.55
2022-09-14T03:34:55.489Z,11.53
2022-09-14T03:37:58.030Z,11.51
2022-09-14T03:40:59.664Z,11.48
2022-09-14T03:44:01.429Z,11.48
2022-09-14T03:47:07.889Z,11.44
2022-09-14T03:50:10.434Z,11.43
2022-09-14T03:53:14.502Z,11.42
2022-09-14T03:56:18.311Z,11.41
2022-09-14T03:59:21.303Z,11.41
2022-09-14T04:02:23.107Z,11.37
2022-09-14T04:05:25.118Z,11.36
2022-09-14T04:08:27.050Z,11.34
2022-09-14T04:11:31.393Z,11.31
2022-09-14T04:14:33.347Z,11.30
2022-09-14T04:17:35.348Z,11.26
2022-09-14T04:20:37.694Z,11.22
2022-09-14T04:24:03.063Z,11.19
2022-09-14T04:27:03.534Z,11.13
2022-09-14T04:30:06.314Z,11.12
2022-09-14T04:33:07.851Z,11.08
2022-09-14T04:36:11.753Z,11.10
2022-09-14T04:39:16.738Z,11.08
2022-09-14T04:42:18.257Z,11.06
2022-09-14T04:45:19.854Z,11.06
2022-09-14T04:48:21.384Z,11.05
2022-09-14T04:51:25.781Z,11.04
2022-09-14T04:54:27.372Z,11.03
2022-09-14T04:57:29.056Z,11.01
2022-09-14T05:00:30.678Z,11.02
2022-09-14T05:03:32.468Z,11.02
2022-09-14T05:06:36.339Z,11.05
2022-09-14T05:09:37.931Z,11.06
2022-09-14T05:12:39.541Z,11.05
2022-09-14T05:15:41.796Z,11.07
2022-09-14T05:18:44.419Z,11.08
2022-09-14T05:21:46.599Z,11.05
2022-09-14T05:24:48.172Z,11.07
2022-09-14T05:27:50.580Z,11.08
2022-09-14T05:30:52.749Z,11.08
2022-09-14T05:33:55.097Z,11.10
2022-09-14T05:36:56.772Z,11.12
2022-09-14T05:39:58.808Z,11.16
2022-09-14T05:43:00.469Z,11.20
2022-09-14T05:46:10.536Z,11.23
2022-09-14T05:49:12.291Z,11.25
2022-09-14T05:52:14.031Z,11.30
2022-09-14T05:55:15.640Z,11.37
2022-09-14T05:58:18.051Z,11.45
2022-09-14T06:01:21.429Z,11.53
2022-09-14T06:04:23.033Z,11.61
2022-09-14T06:07:24.653Z,11.68
2022-09-14T06:10:26.307Z,11.72
2022-09-14T06:13:28.229Z,11.78
2022-09-14T06:16:30.560Z,11.85
2022-09-14T06:19:34.929Z,11.89
2022-09-14T06:22:36.514Z,11.99
2022-09-14T06:25:38.092Z,12.06
2022-09-14T06:28:39.793Z,12.17
2022-09-14T06:31:41.375Z,12.25
2022-09-14T06:34:43.082Z,12.32
2022-09-14T06:37:44.647Z,12.38
2022-09-14T06:41:00.253Z,12.49
2022-09-14T06:44:02.124Z,12.56
2022-09-14T06:47:03.828Z,12.65
2022-09-14T06:50:05.839Z,12.75
2022-09-14T06:53:07.401Z,12.86
2022-09-14T06:56:08.981Z,12.96
2022-09-14T06:59:12.650Z,13.08
2022-09-14T07:02:14.780Z,13.19
2022-09-14T07:05:20.267Z,13.30
2022-09-14T07:08:21.868Z,13.39
2022-09-14T07:11:26.329Z,13.47
2022-09-14T07:14:32.053Z,13.55
2022-09-14T07:17:36.356Z,13.57
2022-09-14T07:20:37.961Z,13.62
2022-09-14T07:23:42.014Z,13.68
2022-09-14T07:26:43.964Z,13.75
2022-09-14T07:29:45.595Z,13.81
2022-09-14T07:32:47.187Z,13.90
2022-09-14T07:35:48.897Z,13.93
2022-09-14T07:39:01.081Z,14.01
2022-09-14T07:42:02.830Z,14.13
2022-09-14T07:45:05.892Z,14.15
2022-09-14T07:48:07.548Z,14.18
2022-09-14T07:51:11.197Z,14.26
2022-09-14T07:54:14.947Z,14.31
2022-09-14T07:57:17.080Z,14.35
2022-09-14T08:00:18.814Z,14.46
2022-09-14T08:03:20.428Z,14.54
2022-09-14T08:06:26.249Z,14.59
2022-09-14T08:09:28.031Z,14.63
2022-09-14T08:12:29.600Z,14.66
2022-09-14T08:15:31.868Z,14.68
2022-09-14T08:18:35.178Z,14.79
2022-09-14T08:21:37.070Z,14.88
2022-09-14T08:24:40.171Z,15.03
2022-09-14T08:27:41.714Z,15.12
2022-09-14T08:30:43.318Z,15.31
2022-09-14T08:33:47.851Z,15.46
2022-09-14T08:36:49.791Z,15.48
2022-09-14T08:39:51.994Z,15.52
2022-09-14T08:42:58.703Z,15.69
2022-09-14T08:46:05.662Z,15.80
2022-09-14T08:49:20.578Z,15.94
2022-09-14T08:52:35.049Z,16.07
2022-09-14T08:55:49.964Z,16.33
2022-09-14T08:59:13.233Z,16.53
2022-09-14T09:02:39.417Z,16.55
2022-09-14T09:05:53.282Z,16.47
2022-09-14T09:09:32.598Z,16.51
2022-09-14T09:12:45.819Z,16.57
2022-09-14T09:15:50.509Z,16.62
2022-09-14T09:18:58.513Z,16.69
2022-09-14T09:22:03.882Z,16.81
2022-09-14T09:25:13.290Z,17.01
2022-09-14T09:28:16.446Z,17.20
2022-09-14T09:31:22.543Z,17.26
2022-09-14T09:34:47.545Z,17.12
2022-09-14T09:38:20.005Z,16.98
2022-09-14T09:41:26.554Z,16.84
2022-09-14T09:44:28.527Z,16.84
2022-09-14T09:47:41.885Z,16.83
2022-09-14T09:51:08.099Z,16.92
2022-09-14T09:54:12.693Z,17.15
2022-09-14T09:57:29.952Z,17.46
2022-09-14T10:00:31.750Z,17.60
2022-09-14T10:03:38.733Z,17.66
2022-09-14T10:06:46.386Z,17.65
2022-09-14T10:10:01.103Z,17.51
2022-09-14T10:13:05.692Z,17.50
2022-09-14T10:16:18.782Z,17.37
2022-09-14T10:19:26.149Z,17.35
2022-09-14T10:22:35.937Z,17.26
2022-09-14T10:25:37.611Z,17.16
2022-09-14T10:28:42.477Z,17.14
2022-09-14T10:31:45.579Z,17.15
2022-09-14T10:34:47.306Z,17.10
2022-09-14T10:38:07.731Z,17.10
2022-09-14T10:41:45.617Z,17.07
2022-09-14T10:45:06.039Z,17.07
2022-09-14T10:48:16.943Z,16.96
2022-09-14T10:51:36.237Z,16.99
2022-09-14T10:54:59.356Z,16.95
2022-09-14T10:58:24.623Z,16.95
2022-09-14T11:01:54.343Z,16.95
2022-09-14T11:05:25.698Z,17.01
2022-09-14T11:08:39.304Z,17.06
2022-09-14T11:12:14.901Z,17.14
2022-09-14T11:15:27.798Z,17.30
2022-09-14T11:18:58.635Z,17.38
2022-09-14T11:22:14.901Z,17.43
2022-09-14T11:25:31.042Z,17.37
2022-09-14T11:28:44.788Z,17.41
2022-09-14T11:32:20.343Z,17.42
2022-09-14T11:35:29.233Z,17.32
2022-09-14T11:38:36.215Z,17.32
2022-09-14T11:41:47.095Z,17.26
2022-09-14T11:44:59.791Z,17.19
2022-09-14T11:48:41.445Z,17.13
2022-09-14T11:51:46.554Z,17.09
2022-09-14T11:54:50.031Z,17.01
2022-09-14T11:57:52.586Z,16.90
2022-09-14T12:01:26.906Z,16.87
2022-09-14T12:04:29.540Z,16.87
2022-09-14T12:07:43.666Z,16.91
2022-09-14T12:11:04.066Z,16.88
2022-09-14T12:14:23.921Z,16.86
2022-09-14T12:17:41.280Z,16.80
2022-09-14T12:21:01.717Z,16.74
2022-09-14T12:24:14.652Z,16.76
2022-09-14T12:27:22.375Z,16.75
2022-09-14T12:30:50.342Z,16.74
2022-09-14T12:34:24.761Z,16.74
2022-09-14T12:37:32.654Z,16.71
2022-09-14T12:40:36.845Z,16.68
2022-09-14T12:43:41.471Z,16.70
2022-09-14T12:46:43.253Z,16.62
2022-09-14T12:50:40.677Z,16.63
2022-09-14T12:53:44.031Z,16.62
2022-09-14T12:57:10.799Z,16.58
2022-09-14T13:00:17.608Z,16.56
2022-09-14T13:03:44.265Z,16.55
2022-09-14T13:06:47.733Z,16.50
2022-09-14T13:09:57.813Z,16.48
2022-09-14T13:13:02.117Z,16.47
2022-09-14T13:16:06.123Z,16.48
2022-09-14T13:19:23.846Z,16.50
2022-09-14T13:22:29.343Z,16.52
2022-09-14T13:25:35.897Z,16.55
2022-09-14T13:28:37.756Z,16.56
2022-09-14T13:31:44.918Z,16.53
2022-09-14T13:34:47.486Z,16.53
2022-09-14T13:37:49.558Z,16.55
2022-09-14T13:40:54.208Z,16.56
2022-09-14T13:43:56.948Z,16.55
2022-09-14T13:47:01.652Z,16.57
2022-09-14T13:50:05.981Z,16.57
2022-09-14T13:53:48.534Z,16.56
2022-09-14T13:57:13.239Z,16.56
2022-09-14T14:00:16.848Z,16.53
2022-09-14T14:03:26.995Z,16.54
2022-09-14T14:06:34.983Z,16.52
2022-09-14T14:10:58.886Z,16.50
2022-09-14T14:14:28.789Z,16.49
2022-09-14T14:17:37.010Z,16.48
2022-09-14T14:24:28.151Z,16.48
2022-09-14T14:27:35.922Z,16.41
2022-09-14T14:30:40.585Z,16.38
2022-09-14T14:33:51.058Z,16.39
2022-09-14T14:36:53.856Z,16.37
2022-09-14T14:39:55.590Z,16.36
2022-09-14T14:42:59.985Z,16.35
2022-09-14T14:46:02.321Z,16.30
2022-09-14T14:49:04.032Z,16.26
2022-09-14T14:52:06.741Z,16.20
2022-09-14T14:55:08.913Z,16.16
2022-09-14T14:58:15.787Z,16.19
2022-09-14T15:01:17.555Z,16.20
2022-09-14T15:04:19.872Z,16.18
2022-09-14T15:07:21.448Z,16.17
2022-09-14T15:10:25.387Z,16.18
2022-09-14T15:13:26.970Z,16.15
2022-09-14T15:16:28.793Z,16.14
2022-09-14T15:19:30.570Z,16.10
2022-09-14T15:22:32.142Z,16.08
2022-09-14T15:25:34.021Z,16.06
2022-09-14T15:28:38.575Z,16.03
2022-09-14T15:31:40.589Z,16.03
2022-09-14T15:34:42.205Z,16.03
2022-09-14T15:37:43.901Z,16.07
2022-09-14T15:40:45.545Z,16.08
2022-09-14T15:43:47.385Z,16.12
2022-09-14T15:46:49.763Z,16.13
2022-09-14T15:49:58.983Z,16.14
2022-09-14T15:53:02.642Z,16.14
2022-09-14T15:56:12.226Z,16.17
2022-09-14T15:59:13.832Z,16.18
2022-09-14T16:02:16.937Z,16.21
2022-09-14T16:05:18.993Z,16.21
2022-09-14T16:08:20.747Z,16.22
2022-09-14T16:11:22.403Z,16.21
2022-09-14T16:14:23.932Z,16.19
2022-09-14T16:17:25.517Z,16.15
2022-09-14T16:20:27.133Z,16.11
2022-09-14T16:23:28.703Z,16.07
2022-09-14T16:26:33.117Z,16.07
2022-09-14T16:29:34.758Z,16.05
2022-09-14T16:32:36.399Z,16.01
2022-09-14T16:35:38.007Z,15.97
2022-09-14T16:38:40.302Z,15.94
2022-09-14T16:41:42.251Z,15.90
2022-09-14T16:44:44.193Z,15.87
2022-09-14T16:47:49.001Z,15.85
2022-09-14T16:50:53.748Z,15.80
2022-09-14T16:53:55.695Z,15.77
2022-09-14T16:56:59.296Z,15.74
2022-09-14T17:00:01.214Z,15.69
2022-09-14T17:03:02.800Z,15.63
2022-09-14T17:06:10.344Z,15.60
2022-09-14T17:09:21.577Z,15.56
2022-09-14T17:12:23.151Z,15.49
2022-09-14T17:15:24.827Z,15.44
2022-09-14T17:18:26.463Z,15.37
2022-09-14T17:21:31.212Z,15.32
2022-09-14T17:24:32.802Z,15.25
2022-09-14T17:27:34.434Z,15.17
2022-09-14T17:30:36.029Z,15.12
2022-09-14T17:33:37.737Z,15.07
2022-09-14T17:36:39.697Z,15.03
2022-09-14T17:39:41.208Z,14.97
2022-09-14T17:42:42.975Z,14.92
2022-09-14T17:45:53.260Z,14.89
2022-09-14T17:48:58.316Z,14.83
2022-09-14T17:52:01.408Z,14.77
2022-09-14T17:55:03.113Z,14.71
2022-09-14T17:58:05.274Z,14.63
2022-09-14T18:01:12.592Z,14.57
2022-09-14T18:04:15.633Z,14.49
2022-09-14T18:07:17.268Z,14.45
2022-09-14T18:10:19.179Z,14.41
2022-09-14T18:13:20.793Z,14.37
2022-09-14T18:16:23.788Z,14.35
2022-09-14T18:19:25.836Z,14.28
2022-09-14T18:22:27.733Z,14.25
2022-09-14T18:25:29.926Z,14.17
2022-09-14T18:28:32.114Z,14.10
2022-09-14T18:31:33.872Z,14.06
2022-09-14T18:34:35.669Z,14.00
2022-09-14T18:37:37.278Z,13.92
2022-09-14T18:40:39.107Z,13.86
2022-09-14T18:43:45.765Z,13.82
2022-09-14T18:46:47.408Z,13.76
2022-09-14T18:49:50.154Z,13.70
2022-09-14T18:52:52.028Z,13.63
2022-09-14T18:55:53.741Z,13.58
2022-09-14T18:58:56.456Z,13.54
2022-09-14T19:01:58.135Z,13.46
2022-09-14T19:04:59.893Z,13.42
2022-09-14T19:08:01.580Z,13.40
2022-09-14T19:11:08.377Z,13.37
2022-09-14T19:14:12.250Z,13.32
2022-09-14T19:17:13.842Z,13.24
2022-09-14T19:20:15.654Z,13.18
2022-09-14T19:23:19.758Z,13.17
2022-09-14T19:26:21.494Z,13.13
2022-09-14T19:29:24.197Z,13.11
2022-09-14T19:32:25.825Z,13.05
2022-09-14T19:35:28.057Z,13.03
2022-09-14T19:38:29.704Z,12.99
2022-09-14T19:41:40.217Z,12.97
2022-09-14T19:44:52.190Z,12.91
2022-09-14T19:47:53.850Z,12.90
2022-09-14T19:51:00.491Z,12.87
2022-09-14T19:54:02.136Z,12.83
2022-09-14T19:57:10.161Z,12.78
2022-09-14T20:00:42.214Z,12.75
2022-09-14T20:03:47.089Z,12.72
2022-09-14T20:06:52.870Z,12.65
2022-09-14T20:09:57.045Z,12.60
2022-09-14T20:12:58.711Z,12.58
2022-09-14T20:16:32.108Z,12.56
2022-09-14T20:19:43.849Z,12.52
2022-09-14T20:22:48.084Z,12.52
2022-09-14T20:25:52.699Z,12.51
2022-09-14T20:28:55.876Z,12.51
2022-09-14T20:32:00.041Z,12.46
2022-09-14T20:35:01.783Z,12.46
2022-09-14T20:38:05.859Z,12.45
2022-09-14T20:41:08.934Z,12.42
2022-09-14T20:44:11.966Z,12.39
2022-09-14T20:47:13.686Z,12.39
2022-09-14T20:50:15.430Z,12.38
2022-09-14T20:53:16.997Z,12.35
2022-09-14T20:57:03.530Z,12.35
2022-09-14T21:00:01.380Z,12.32
2022-09-14T21:03:03.129Z,12.30
2022-09-14T21:06:07.613Z,12.28
2022-09-14T21:09:10.389Z,12.28
2022-09-14T21:12:14.086Z,12.29
2022-09-14T21:15:15.902Z,12.28
2022-09-14T21:18:20.618Z,12.29
2022-09-14T21:21:23.438Z,12.33
2022-09-14T21:24:25.417Z,12.36
2022-09-14T21:27:27.044Z,12.36
2022-09-14T21:30:29.007Z,12.41
2022-09-14T21:33:33.259Z,12.44
2022-09-14T21:36:38.328Z,12.48
2022-09-14T21:39:40.390Z,12.50
2022-09-14T21:42:42.146Z,12.51
2022-09-14T21:45:45.177Z,12.54
2022-09-14T21:48:47.009Z,12.54
2022-09-14T21:51:49.258Z,12.57
2022-09-14T21:54:50.856Z,12.55
2022-09-14T21:57:52.459Z,12.55
2022-09-14T22:01:01.582Z,12.55
2022-09-14T22:04:04.434Z,12.56
2022-09-14T22:07:07.915Z,12.55
2022-09-14T22:10:10.684Z,12.53
2022-09-14T22:13:12.319Z,12.54
2022-09-14T22:16:16.841Z,12.56
2022-09-14T22:19:24.832Z,12.53
2022-09-14T22:22:27.515Z,12.51
2022-09-14T22:25:29.137Z,12.48
2022-09-14T22:28:30.973Z,12.47
2022-09-14T22:31:33.243Z,12.45
2022-09-14T22:34:35.670Z,12.37
2022-09-14T22:37:37.260Z,12.35
2022-09-14T22:40:38.790Z,12.28
2022-09-14T22:43:41.457Z,12.32
2022-09-14T22:46:43.175Z,12.32
2022-09-14T22:49:44.856Z,12.35
2022-09-14T22:52:46.434Z,12.35
2022-09-14T22:55:48.596Z,12.33
2022-09-14T22:58:51.037Z,12.30
2022-09-14T23:01:52.788Z,12.28
2022-09-14T23:04:55.874Z,12.25
2022-09-14T23:07:57.613Z,12.22
2022-09-14T23:11:12.021Z,12.18
2022-09-14T23:14:15.350Z,12.19
2022-09-14T23:17:16.926Z,12.11
2022-09-14T23:20:18.594Z,12.12
2022-09-14T23:23:20.217Z,12.09
2022-09-14T23:26:22.992Z,12.06
2022-09-14T23:29:24.634Z,12.02
2022-09-14T23:32:26.208Z,12.00
2022-09-14T23:35:28.950Z,11.98
2022-09-14T23:38:30.507Z,11.94
2022-09-14T23:41:32.168Z,11.89
2022-09-14T23:44:34.065Z,11.85
2022-09-14T23:47:35.899Z,11.80
2022-09-14T23:50:38.105Z,11.73
2022-09-14T23:53:40.493Z,11.71
2022-09-14T23:56:42.125Z,11.69
2022-09-14T23:59:44.747Z,11.64
